createdAt,value
2018-11-29T00:00:09.886Z,1021.87
2018-11-29T00:01:09.906Z,1021.95
2018-11-29T00:02:09.909Z,1021.96
2018-11-29T00:03:09.923Z,1021.96
2018-11-29T00:04:09.933Z,1021.99
2018-11-29T00:05:09.947Z,1021.94
2018-11-29T00:06:09.952Z,1021.98
2018-11-29T00:07:09.967Z,1021.98
2018-11-29T00:08:09.976Z,1021.99
2018-11-29T00:09:09.991Z,1021.95
2018-11-29T00:10:10.003Z,1021.95
2018-11-29T00:11:10.009Z,1021.97
2018-11-29T00:13:10.032Z,1021.92
2018-11-29T00:14:10.043Z,1021.89
2018-11-29T00:15:10.061Z,1021.89
2018-11-29T00:16:10.065Z,1021.85
2018-11-29T00:17:10.081Z,1021.95
2018-11-29T00:18:10.087Z,1021.96
2018-11-29T00:19:10.104Z,1021.97
2018-11-29T00:20:10.112Z,1021.99
2018-11-29T00:21:10.121Z,1021.98
2018-11-29T00:22:10.137Z,1021.94
2018-11-29T00:23:10.149Z,1021.96
2018-11-29T00:24:10.156Z,1021.94
2018-11-29T00:25:10.166Z,1021.92
2018-11-29T00:26:10.179Z,1021.92
2018-11-29T00:27:10.196Z,1021.92
2018-11-29T00:29:10.316Z,1021.86
2018-11-29T00:30:10.225Z,1021.8
2018-11-29T00:31:10.235Z,1021.79
2018-11-29T00:32:10.246Z,1021.8
2018-11-29T00:33:10.261Z,1021.77
2018-11-29T00:34:10.273Z,1021.7
2018-11-29T00:35:10.280Z,1021.75
2018-11-29T00:36:10.292Z,1021.71
2018-11-29T00:37:10.300Z,1021.72
2018-11-29T00:38:10.317Z,1021.72
2018-11-29T00:39:10.324Z,1021.75
2018-11-29T00:40:10.339Z,1021.74
2018-11-29T00:41:10.347Z,1021.82
2018-11-29T00:42:10.362Z,1021.8
2018-11-29T00:43:10.367Z,1021.8
2018-11-29T00:45:10.396Z,1021.8
2018-11-29T00:46:10.407Z,1021.69
2018-11-29T00:47:10.413Z,1021.78
2018-11-29T00:48:10.430Z,1021.71
2018-11-29T00:49:10.435Z,1021.79
2018-11-29T00:50:10.451Z,1021.74
2018-11-29T00:51:10.457Z,1021.8
2018-11-29T00:52:10.473Z,1021.8
2018-11-29T00:53:10.486Z,1021.79
2018-11-29T00:54:10.494Z,1021.77
2018-11-29T00:55:10.507Z,1021.7
2018-11-29T00:56:10.521Z,1021.65
2018-11-29T00:57:10.530Z,1021.59
2018-11-29T00:58:10.542Z,1021.55
2018-11-29T01:00:10.565Z,1021.63
2018-11-29T01:01:10.570Z,1021.7
2018-11-29T01:02:10.587Z,1021.67
2018-11-29T01:03:10.598Z,1021.74
2018-11-29T01:04:10.604Z,1021.71
2018-11-29T01:05:10.615Z,1021.74
2018-11-29T01:06:10.632Z,1021.79
2018-11-29T01:07:10.643Z,1021.79
2018-11-29T01:08:10.653Z,1021.79
2018-11-29T01:09:10.659Z,1021.81
2018-11-29T01:10:10.677Z,1021.72
2018-11-29T01:11:10.684Z,1021.71
2018-11-29T01:12:10.692Z,1021.59
2018-11-29T01:13:10.709Z,1021.57
2018-11-29T01:14:10.721Z,1021.6
2018-11-29T01:15:10.727Z,1021.62
2018-11-29T01:16:10.742Z,1021.67
2018-11-29T01:17:10.748Z,1021.68
2018-11-29T01:18:10.767Z,1021.69
2018-11-29T01:19:10.779Z,1021.71
2018-11-29T01:20:10.787Z,1021.68
2018-11-29T01:21:10.794Z,1021.73
2018-11-29T01:22:10.806Z,1021.73
2018-11-29T01:23:10.826Z,1021.7
2018-11-29T01:24:10.827Z,1021.67
2018-11-29T01:25:10.843Z,1021.67
2018-11-29T01:26:10.905Z,1021.67
2018-11-29T01:27:10.860Z,1021.69
2018-11-29T01:28:10.871Z,1021.7
2018-11-29T01:29:10.885Z,1021.76
2018-11-29T01:30:10.900Z,1021.74
2018-11-29T01:32:10.922Z,1021.71
2018-11-29T01:33:10.933Z,1021.68
2018-11-29T01:34:10.943Z,1021.65
2018-11-29T01:35:10.950Z,1021.58
2018-11-29T01:36:10.963Z,1021.59
2018-11-29T01:37:10.978Z,1021.57
2018-11-29T01:38:10.983Z,1021.54
2018-11-29T01:39:11.001Z,1021.55
2018-11-29T01:40:11.011Z,1021.54
2018-11-29T01:41:11.021Z,1021.55
2018-11-29T01:42:11.027Z,1021.56
2018-11-29T01:43:11.044Z,1021.59
2018-11-29T01:44:11.051Z,1021.59
2018-11-29T01:45:11.061Z,1021.53
2018-11-29T01:46:11.072Z,1021.47
2018-11-29T01:48:11.097Z,1021.43
2018-11-29T01:49:11.111Z,1021.35
2018-11-29T01:50:11.120Z,1021.39
2018-11-29T01:51:11.134Z,1021.31
2018-11-29T01:52:11.140Z,1021.31
2018-11-29T01:53:11.151Z,1021.19
2018-11-29T01:54:11.170Z,1021.27
2018-11-29T01:55:11.178Z,1021.25
2018-11-29T01:56:11.189Z,1021.26
2018-11-29T01:57:11.196Z,1021.25
2018-11-29T01:58:11.212Z,1021.24
2018-11-29T01:59:11.219Z,1021.2
2018-11-29T02:00:11.229Z,1021.25
2018-11-29T02:01:11.240Z,1021.19
2018-11-29T02:02:11.256Z,1021.2
2018-11-29T02:04:11.274Z,1021.14
2018-11-29T02:05:11.289Z,1021.2
2018-11-29T02:06:11.295Z,1021.06
2018-11-29T02:07:11.311Z,1021.07
2018-11-29T02:08:11.318Z,1021.08
2018-11-29T02:09:11.334Z,1021.05
2018-11-29T02:10:11.340Z,1021.07
2018-11-29T02:11:11.356Z,1021.05
2018-11-29T02:12:11.367Z,1021.07
2018-11-29T02:13:11.379Z,1021.1
2018-11-29T02:14:11.383Z,1021.1
2018-11-29T02:15:11.400Z,1021.11
2018-11-29T02:16:11.407Z,1021.13
2018-11-29T02:17:11.423Z,1021.09
2018-11-29T02:18:11.433Z,1021.07
2018-11-29T02:20:11.456Z,1020.93
2018-11-29T02:21:11.462Z,1020.88
2018-11-29T02:22:11.479Z,1020.9
2018-11-29T02:23:11.486Z,1020.86
2018-11-29T02:24:11.500Z,1020.91
2018-11-29T02:25:11.506Z,1020.83
2018-11-29T02:26:11.522Z,1020.84
2018-11-29T02:27:11.533Z,1020.81
2018-11-29T02:28:11.539Z,1020.78
2018-11-29T02:29:11.557Z,1020.77
2018-11-29T02:30:11.567Z,1020.78
2018-11-29T02:31:11.579Z,1020.76
2018-11-29T02:32:11.589Z,1020.73
2018-11-29T02:33:11.600Z,1020.63
2018-11-29T02:35:11.618Z,1020.65
2018-11-29T02:36:11.633Z,1020.6
2018-11-29T02:37:11.641Z,1020.62
2018-11-29T02:38:11.657Z,1020.65
2018-11-29T02:39:11.667Z,1020.66
2018-11-29T02:40:11.672Z,1020.63
2018-11-29T02:41:11.685Z,1020.59
2018-11-29T02:42:11.700Z,1020.6
2018-11-29T02:43:11.707Z,1020.58
2018-11-29T02:44:11.722Z,1020.58
2018-11-29T02:45:11.735Z,1020.62
2018-11-29T02:46:11.747Z,1020.63
2018-11-29T02:47:11.750Z,1020.6
2018-11-29T02:48:11.762Z,1020.61
2018-11-29T02:49:11.778Z,1020.6
2018-11-29T02:50:11.808Z,1020.62
2018-11-29T02:51:11.802Z,1020.6
2018-11-29T02:52:11.811Z,1020.58
2018-11-29T02:53:11.817Z,1020.6
2018-11-29T02:54:11.833Z,1020.55
2018-11-29T02:55:11.845Z,1020.6
2018-11-29T02:56:11.855Z,1020.6
2018-11-29T02:57:11.861Z,1020.59
2018-11-29T02:58:11.875Z,1020.61
2018-11-29T02:59:11.883Z,1020.63
2018-11-29T03:00:11.894Z,1020.65
2018-11-29T03:01:11.910Z,1020.63
2018-11-29T03:02:11.921Z,1020.66
2018-11-29T03:03:11.937Z,1020.66
2018-11-29T03:04:11.940Z,1020.7
2018-11-29T03:05:11.954Z,1020.64
2018-11-29T03:07:11.977Z,1020.71
2018-11-29T03:08:11.983Z,1020.75
2018-11-29T03:09:11.994Z,1020.76
2018-11-29T03:10:12.005Z,1020.78
2018-11-29T03:11:12.022Z,1020.76
2018-11-29T03:12:12.035Z,1020.76
2018-11-29T03:13:12.039Z,1020.74
2018-11-29T03:14:12.059Z,1020.74
2018-11-29T03:15:12.062Z,1020.76
2018-11-29T03:16:12.647Z,1020.71
2018-11-29T03:17:12.090Z,1020.69
2018-11-29T03:18:12.102Z,1020.61
2018-11-29T03:19:12.117Z,1020.59
2018-11-29T03:20:12.123Z,1020.53
2018-11-29T03:21:12.135Z,1020.53
2018-11-29T03:23:12.151Z,1020.52
2018-11-29T03:24:12.166Z,1020.49
2018-11-29T03:25:12.175Z,1020.53
2018-11-29T03:26:12.190Z,1020.5
2018-11-29T03:27:12.196Z,1020.53
2018-11-29T03:28:12.211Z,1020.56
2018-11-29T03:29:12.218Z,1020.49
2018-11-29T03:30:12.237Z,1020.52
2018-11-29T03:31:12.253Z,1020.51
2018-11-29T03:32:12.258Z,1020.57
2018-11-29T03:33:12.267Z,1020.54
2018-11-29T03:34:12.280Z,1020.5
2018-11-29T03:35:12.285Z,1020.5
2018-11-29T03:36:12.303Z,1020.52
2018-11-29T03:37:12.313Z,1020.57
2018-11-29T03:39:12.331Z,1020.64
2018-11-29T03:40:12.342Z,1020.68
2018-11-29T03:41:12.360Z,1020.64
2018-11-29T03:42:12.363Z,1020.66
2018-11-29T03:43:12.380Z,1020.64
2018-11-29T03:44:12.387Z,1020.68
2018-11-29T03:45:12.404Z,1020.63
2018-11-29T03:46:12.408Z,1020.68
2018-11-29T03:47:12.422Z,1020.72
2018-11-29T03:48:12.437Z,1020.74
2018-11-29T03:49:12.442Z,1020.72
2018-11-29T03:50:12.459Z,1020.65
2018-11-29T03:51:12.465Z,1020.66
2018-11-29T03:52:12.482Z,1020.67
2018-11-29T03:53:12.488Z,1020.63
2018-11-29T03:55:12.516Z,1020.67
2018-11-29T03:56:12.523Z,1020.68
2018-11-29T03:57:12.537Z,1020.72
2018-11-29T03:58:12.552Z,1020.66
2018-11-29T03:59:12.558Z,1020.65
2018-11-29T04:00:12.571Z,1020.67
2018-11-29T04:01:12.582Z,1020.68
2018-11-29T04:02:12.590Z,1020.63
2018-11-29T04:03:12.608Z,1020.65
2018-11-29T04:04:12.610Z,1020.66
2018-11-29T04:05:12.622Z,1020.64
2018-11-29T04:06:12.639Z,1020.67
2018-11-29T04:07:12.645Z,1020.6
2018-11-29T04:08:12.662Z,1020.6
2018-11-29T04:10:12.687Z,1020.48
2018-11-29T04:11:12.690Z,1020.5
2018-11-29T04:12:12.703Z,1020.42
2018-11-29T04:13:12.717Z,1020.51
2018-11-29T04:14:12.730Z,1020.48
2018-11-29T04:15:12.740Z,1020.52
2018-11-29T04:16:12.748Z,1020.56
2018-11-29T04:17:12.764Z,1020.62
2018-11-29T04:18:12.770Z,1020.57
2018-11-29T04:19:12.784Z,1020.58
2018-11-29T04:20:12.799Z,1020.57
2018-11-29T04:21:12.809Z,1020.54
2018-11-29T04:22:12.815Z,1020.56
2018-11-29T04:23:12.832Z,1020.53
2018-11-29T04:24:12.837Z,1020.49
2018-11-29T04:25:12.847Z,1020.5
2018-11-29T04:26:12.859Z,1020.41
2018-11-29T04:27:12.875Z,1020.44
2018-11-29T04:28:12.881Z,1020.38
2018-11-29T04:29:12.898Z,1020.35
2018-11-29T04:30:12.908Z,1020.35
2018-11-29T04:31:12.921Z,1020.32
2018-11-29T04:32:12.928Z,1020.26
2018-11-29T04:33:12.942Z,1020.34
2018-11-29T04:34:12.949Z,1020.32
2018-11-29T04:35:12.971Z,1020.33
2018-11-29T04:36:12.977Z,1020.34
2018-11-29T04:37:12.989Z,1020.29
2018-11-29T04:38:12.999Z,1020.27
2018-11-29T04:39:13.006Z,1020.28
2018-11-29T04:40:13.020Z,1020.29
2018-11-29T04:42:13.041Z,1020.36
2018-11-29T04:43:13.067Z,1020.35
2018-11-29T04:44:13.061Z,1020.42
2018-11-29T04:45:13.072Z,1020.4
2018-11-29T04:46:13.089Z,1020.45
2018-11-29T04:47:13.100Z,1020.44
2018-11-29T04:48:13.112Z,1020.45
2018-11-29T04:49:13.117Z,1020.49
2018-11-29T04:50:13.135Z,1020.47
2018-11-29T04:51:13.139Z,1020.41
2018-11-29T04:52:13.154Z,1020.38
2018-11-29T04:53:13.167Z,1020.34
2018-11-29T04:54:13.179Z,1020.37
2018-11-29T04:55:13.184Z,1020.34
2018-11-29T04:56:13.201Z,1020.37
2018-11-29T04:58:13.225Z,1020.37
2018-11-29T04:59:13.235Z,1020.32
2018-11-29T05:00:13.240Z,1020.27
2018-11-29T05:01:13.252Z,1020.26
2018-11-29T05:02:13.263Z,1020.23
2018-11-29T05:03:13.284Z,1020.18
2018-11-29T05:04:13.286Z,1020.15
2018-11-29T05:05:13.302Z,1020.15
2018-11-29T05:06:13.308Z,1020.18
2018-11-29T05:07:13.325Z,1020.18
2018-11-29T05:08:13.336Z,1020.16
2018-11-29T05:09:13.344Z,1020.13
2018-11-29T05:10:13.359Z,1020.13
2018-11-29T05:11:13.367Z,1020.12
2018-11-29T05:12:13.381Z,1020.17
2018-11-29T05:14:13.403Z,1020.18
2018-11-29T05:15:13.409Z,1020.24
2018-11-29T05:16:13.420Z,1020.26
2018-11-29T05:17:13.431Z,1020.21
2018-11-29T05:18:13.448Z,1020.22
2018-11-29T05:19:13.460Z,1020.2
2018-11-29T05:20:13.467Z,1020.15
2018-11-29T05:21:13.478Z,1020.15
2018-11-29T05:22:13.493Z,1020.17
2018-11-29T05:23:13.501Z,1020.13
2018-11-29T05:24:13.515Z,1020.14
2018-11-29T05:25:13.528Z,1020.11
2018-11-29T05:26:13.538Z,1020.05
2018-11-29T05:27:13.550Z,1020.09
2018-11-29T05:28:13.556Z,1020.07
2018-11-29T05:30:13.579Z,1019.98
2018-11-29T05:31:13.594Z,1019.98
2018-11-29T05:32:13.600Z,1019.94
2018-11-29T05:33:13.612Z,1019.99
2018-11-29T05:34:13.651Z,1020.02
2018-11-29T05:35:13.634Z,1020.02
2018-11-29T05:36:13.651Z,1020.07
2018-11-29T05:37:13.656Z,1020.09
2018-11-29T05:38:13.673Z,1020.1
2018-11-29T05:39:13.680Z,1020.04
2018-11-29T05:40:13.689Z,1020.04
2018-11-29T05:41:13.707Z,1019.98
2018-11-29T05:42:13.712Z,1020.04
2018-11-29T05:43:13.730Z,1019.98
2018-11-29T05:45:13.748Z,1020.04
2018-11-29T05:46:13.763Z,1020.02
2018-11-29T05:47:13.773Z,1020.05
2018-11-29T05:48:13.785Z,1020.02
2018-11-29T05:49:13.792Z,1020.01
2018-11-29T05:50:13.810Z,1020.08
2018-11-29T05:51:13.819Z,1020
2018-11-29T05:52:13.831Z,1020.11
2018-11-29T05:53:13.837Z,1020.13
2018-11-29T05:54:13.853Z,1020.14
2018-11-29T05:55:13.860Z,1020.13
2018-11-29T05:56:13.873Z,1020.11
2018-11-29T05:57:13.881Z,1020.15
2018-11-29T05:58:13.892Z,1020.08
2018-11-29T05:59:13.911Z,1020.06
2018-11-29T06:00:13.918Z,1020.07
2018-11-29T06:01:13.931Z,1020.03
2018-11-29T06:02:13.939Z,1020.08
2018-11-29T06:03:13.954Z,1020.1
2018-11-29T06:04:13.959Z,1020.05
2018-11-29T06:05:13.973Z,1020.11
2018-11-29T06:06:13.988Z,1020.14
2018-11-29T06:07:13.994Z,1020.03
2018-11-29T06:08:14.010Z,1020.01
2018-11-29T06:09:14.017Z,1020.03
2018-11-29T06:10:14.032Z,1020.1
2018-11-29T06:11:14.039Z,1020.07
2018-11-29T06:12:14.054Z,1020
2018-11-29T06:13:14.061Z,1020.01
2018-11-29T06:14:14.078Z,1019.99
2018-11-29T06:15:14.087Z,1020
2018-11-29T06:17:14.111Z,1019.84
2018-11-29T06:18:14.118Z,1019.87
2018-11-29T06:19:14.130Z,1019.89
2018-11-29T06:20:14.144Z,1019.83
2018-11-29T06:21:14.151Z,1019.81
2018-11-29T06:22:14.162Z,1019.81
2018-11-29T06:23:14.172Z,1019.82
2018-11-29T06:24:14.192Z,1019.84
2018-11-29T06:25:14.201Z,1019.94
2018-11-29T06:26:14.206Z,1019.9
2018-11-29T06:27:14.222Z,1019.87
2018-11-29T06:28:14.229Z,1019.99
2018-11-29T06:29:14.246Z,1019.91
2018-11-29T06:30:14.251Z,1019.92
2018-11-29T06:31:14.269Z,1019.88
2018-11-29T06:33:14.285Z,1019.9
2018-11-29T06:34:14.296Z,1019.95
2018-11-29T06:35:14.307Z,1019.86
2018-11-29T06:36:14.324Z,1019.91
2018-11-29T06:37:14.332Z,1019.92
2018-11-29T06:38:14.346Z,1019.97
2018-11-29T06:39:14.353Z,1020.06
2018-11-29T06:40:14.369Z,1020.04
2018-11-29T06:41:14.374Z,1020
2018-11-29T06:42:14.391Z,1020.01
2018-11-29T06:43:14.397Z,1019.97
2018-11-29T06:44:14.414Z,1019.94
2018-11-29T06:45:14.420Z,1019.89
2018-11-29T06:46:14.436Z,1019.95
2018-11-29T06:47:14.442Z,1019.9
2018-11-29T06:49:14.465Z,1019.87
2018-11-29T06:50:14.480Z,1019.78
2018-11-29T06:51:14.486Z,1019.71
2018-11-29T06:52:14.497Z,1019.74
2018-11-29T06:53:14.509Z,1019.67
2018-11-29T06:54:14.525Z,1019.74
2018-11-29T06:55:14.536Z,1019.68
2018-11-29T06:56:14.543Z,1019.67
2018-11-29T06:57:14.559Z,1019.72
2018-11-29T06:58:14.567Z,1019.76
2018-11-29T06:59:14.580Z,1019.76
2018-11-29T07:00:14.587Z,1019.81
2018-11-29T07:01:14.600Z,1019.8
2018-11-29T07:02:14.622Z,1019.75
2018-11-29T07:03:14.621Z,1019.84
2018-11-29T07:05:14.645Z,1019.83
2018-11-29T07:06:14.657Z,1019.82
2018-11-29T07:07:14.667Z,1019.82
2018-11-29T07:08:14.677Z,1019.78
2018-11-29T07:09:14.690Z,1019.79
2018-11-29T07:10:14.700Z,1019.68
2018-11-29T07:11:14.710Z,1019.78
2018-11-29T07:12:14.730Z,1019.76
2018-11-29T07:13:14.735Z,1019.74
2018-11-29T07:14:14.745Z,1019.75
2018-11-29T07:15:14.756Z,1019.77
2018-11-29T07:16:14.768Z,1019.66
2018-11-29T07:17:14.780Z,1019.74
2018-11-29T07:18:14.791Z,1019.77
2018-11-29T07:20:14.816Z,1019.78
2018-11-29T07:21:14.846Z,1019.77
2018-11-29T07:22:14.837Z,1019.86
2018-11-29T07:23:14.847Z,1019.79
2018-11-29T07:24:14.859Z,1019.84
2018-11-29T07:25:14.869Z,1019.82
2018-11-29T07:26:14.881Z,1019.82
2018-11-29T07:27:14.893Z,1019.7
2018-11-29T07:28:14.903Z,1019.77
2018-11-29T07:29:16.971Z,1019.72
2018-11-29T07:30:14.927Z,1019.75
2018-11-29T07:31:14.939Z,1019.65
2018-11-29T07:32:14.951Z,1019.68
2018-11-29T07:33:14.960Z,1019.66
2018-11-29T07:34:14.973Z,1019.62
2018-11-29T07:35:14.983Z,1019.62
2018-11-29T07:36:14.994Z,1019.6
2018-11-29T07:37:17.321Z,1019.66
2018-11-29T07:38:15.017Z,1019.62
2018-11-29T07:39:15.028Z,1019.57
2018-11-29T07:40:15.039Z,1019.67
2018-11-29T07:41:15.053Z,1019.7
2018-11-29T07:42:15.064Z,1019.73
2018-11-29T07:43:15.075Z,1019.76
2018-11-29T07:44:15.099Z,1019.78
2018-11-29T07:45:15.100Z,1019.72
2018-11-29T07:46:15.110Z,1019.7
2018-11-29T07:47:15.121Z,1019.68
2018-11-29T07:48:15.132Z,1019.66
2018-11-29T07:49:15.144Z,1019.71
2018-11-29T07:50:15.153Z,1019.66
2018-11-29T07:52:15.182Z,1019.72
2018-11-29T07:53:16.277Z,1019.76
2018-11-29T07:54:15.200Z,1019.69
2018-11-29T07:55:15.213Z,1019.75
2018-11-29T07:56:15.225Z,1019.78
2018-11-29T07:57:15.236Z,1019.76
2018-11-29T07:58:15.248Z,1019.77
2018-11-29T07:59:15.260Z,1019.71
2018-11-29T08:00:15.273Z,1019.73
2018-11-29T08:01:15.283Z,1019.7
2018-11-29T08:02:15.295Z,1019.71
2018-11-29T08:03:15.305Z,1019.64
2018-11-29T08:04:15.318Z,1019.7
2018-11-29T08:05:15.329Z,1019.59
2018-11-29T08:06:15.341Z,1019.67
2018-11-29T08:08:15.366Z,1019.53
2018-11-29T08:09:15.375Z,1019.56
2018-11-29T08:10:15.389Z,1019.6
2018-11-29T08:11:15.402Z,1019.51
2018-11-29T08:12:15.411Z,1019.51
2018-11-29T08:13:15.424Z,1019.48
2018-11-29T08:14:15.438Z,1019.43
2018-11-29T08:15:15.448Z,1019.46
2018-11-29T08:16:15.462Z,1019.47
2018-11-29T08:17:15.473Z,1019.43
2018-11-29T08:18:15.486Z,1019.45
2018-11-29T08:19:15.496Z,1019.39
2018-11-29T08:20:15.508Z,1019.45
2018-11-29T08:21:15.519Z,1019.43
2018-11-29T08:22:15.533Z,1019.4
2018-11-29T08:24:15.555Z,1019.47
2018-11-29T08:25:15.567Z,1019.39
2018-11-29T08:26:15.581Z,1019.49
2018-11-29T08:27:15.591Z,1019.44
2018-11-29T08:28:15.603Z,1019.5
2018-11-29T08:29:15.616Z,1019.48
2018-11-29T08:30:15.678Z,1019.46
2018-11-29T08:31:15.641Z,1019.47
2018-11-29T08:32:15.653Z,1019.44
2018-11-29T08:33:15.663Z,1019.38
2018-11-29T08:34:15.676Z,1019.36
2018-11-29T08:35:15.690Z,1019.33
2018-11-29T08:36:15.701Z,1019.42
2018-11-29T08:37:15.712Z,1019.34
2018-11-29T08:38:15.725Z,1019.32
2018-11-29T08:40:15.749Z,1019.27
2018-11-29T08:41:15.767Z,1019.3
2018-11-29T08:42:15.773Z,1019.28
2018-11-29T08:43:15.785Z,1019.35
2018-11-29T08:44:15.797Z,1019.3
2018-11-29T08:45:15.809Z,1019.32
2018-11-29T08:46:15.820Z,1019.35
2018-11-29T08:47:15.833Z,1019.33
2018-11-29T08:48:15.846Z,1019.37
2018-11-29T08:49:15.858Z,1019.36
2018-11-29T08:50:15.872Z,1019.37
2018-11-29T08:51:15.883Z,1019.34
2018-11-29T08:52:15.897Z,1019.21
2018-11-29T08:53:15.908Z,1019.26
2018-11-29T08:55:15.934Z,1019.24
2018-11-29T08:56:15.944Z,1019.2
2018-11-29T08:57:15.957Z,1019.24
2018-11-29T08:58:15.971Z,1019.26
2018-11-29T08:59:15.982Z,1019.21
2018-11-29T09:00:15.995Z,1019.17
2018-11-29T09:01:16.007Z,1019.15
2018-11-29T09:02:16.019Z,1019.17
2018-11-29T09:03:16.032Z,1019.21
2018-11-29T09:04:16.047Z,1019.26
2018-11-29T09:05:16.058Z,1019.3
2018-11-29T09:06:16.072Z,1019.3
2018-11-29T09:07:16.084Z,1019.27
2018-11-29T09:08:16.099Z,1019.32
2018-11-29T09:09:16.110Z,1019.27
2018-11-29T09:10:16.122Z,1019.2
2018-11-29T09:11:16.135Z,1019.26
2018-11-29T09:12:16.148Z,1019.2
2018-11-29T09:13:16.162Z,1019.22
2018-11-29T09:14:16.176Z,1019.17
2018-11-29T09:15:16.187Z,1019.22
2018-11-29T09:16:16.199Z,1019.23
2018-11-29T09:17:16.214Z,1019.22
2018-11-29T09:18:16.227Z,1019.28
2018-11-29T09:19:16.238Z,1019.23
2018-11-29T09:20:16.252Z,1019.21
2018-11-29T09:21:16.267Z,1019.13
2018-11-29T09:22:17.884Z,1019.24
2018-11-29T09:23:16.293Z,1019.12
2018-11-29T09:24:16.309Z,1019.09
2018-11-29T09:25:16.318Z,1019.13
2018-11-29T09:27:16.346Z,1019.1
2018-11-29T09:28:16.356Z,1019.09
2018-11-29T09:29:16.377Z,1019.12
2018-11-29T09:30:16.383Z,1019.11
2018-11-29T09:31:16.397Z,1019.08
2018-11-29T09:32:16.409Z,1019.09
2018-11-29T09:33:16.423Z,1019.06
2018-11-29T09:34:16.435Z,1019.09
2018-11-29T09:35:16.449Z,1019.09
2018-11-29T09:36:16.463Z,1019.07
2018-11-29T09:37:16.474Z,1019.05
2018-11-29T09:38:16.488Z,1019.05
2018-11-29T09:39:16.502Z,1019.03
2018-11-29T09:40:16.514Z,1019.01
2018-11-29T09:41:16.588Z,1018.96
2018-11-29T09:43:16.554Z,1018.92
2018-11-29T09:44:16.566Z,1018.93
2018-11-29T09:45:16.580Z,1018.87
2018-11-29T09:46:16.594Z,1018.93
2018-11-29T09:47:16.608Z,1018.92
2018-11-29T09:48:16.620Z,1018.89
2018-11-29T09:49:16.634Z,1018.82
2018-11-29T09:50:16.646Z,1018.78
2018-11-29T09:51:16.658Z,1018.74
2018-11-29T09:52:16.675Z,1018.79
2018-11-29T09:53:16.686Z,1018.77
2018-11-29T09:54:16.699Z,1018.71
2018-11-29T09:55:16.711Z,1018.71
2018-11-29T09:56:16.726Z,1018.72
2018-11-29T09:57:16.739Z,1018.74
2018-11-29T09:59:16.765Z,1018.69
2018-11-29T10:00:16.777Z,1018.68
2018-11-29T10:01:16.894Z,1018.69
2018-11-29T10:02:16.805Z,1018.6
2018-11-29T10:03:16.817Z,1018.65
2018-11-29T10:04:16.832Z,1018.52
2018-11-29T10:05:16.844Z,1018.54
2018-11-29T10:06:16.858Z,1018.52
2018-11-29T10:07:16.871Z,1018.48
2018-11-29T10:08:16.908Z,1018.47
2018-11-29T10:09:16.899Z,1018.52
2018-11-29T10:10:16.910Z,1018.48
2018-11-29T10:11:16.923Z,1018.41
2018-11-29T10:12:16.938Z,1018.42
2018-11-29T10:13:16.950Z,1018.37
2018-11-29T10:15:16.977Z,1018.41
2018-11-29T10:16:16.992Z,1018.41
2018-11-29T10:17:17.003Z,1018.37
2018-11-29T10:18:17.018Z,1018.36
2018-11-29T10:19:17.030Z,1018.42
2018-11-29T10:20:17.146Z,1018.4
2018-11-29T10:21:17.057Z,1018.38
2018-11-29T10:22:17.071Z,1018.43
2018-11-29T10:23:17.085Z,1018.5
2018-11-29T10:24:17.096Z,1018.48
2018-11-29T10:25:17.110Z,1018.45
2018-11-29T10:26:17.155Z,1018.45
2018-11-29T10:27:17.140Z,1018.43
2018-11-29T10:28:17.251Z,1018.41
2018-11-29T10:30:17.179Z,1018.38
2018-11-29T10:31:17.192Z,1018.38
2018-11-29T10:32:17.205Z,1018.29
2018-11-29T10:33:17.220Z,1018.3
2018-11-29T10:34:17.234Z,1018.31
2018-11-29T10:35:17.248Z,1018.3
2018-11-29T10:36:17.259Z,1018.23
2018-11-29T10:37:17.293Z,1018.12
2018-11-29T10:38:17.286Z,1018.22
2018-11-29T10:39:17.300Z,1018.17
2018-11-29T10:40:17.328Z,1018.13
2018-11-29T10:41:17.328Z,1018.13
2018-11-29T10:42:17.339Z,1018.17
2018-11-29T10:43:17.354Z,1018.1
2018-11-29T10:44:17.367Z,1018.18
2018-11-29T10:45:17.383Z,1018.12
2018-11-29T10:46:17.395Z,1017.98
2018-11-29T10:47:17.409Z,1017.97
2018-11-29T10:48:17.422Z,1017.93
2018-11-29T10:49:17.434Z,1017.91
2018-11-29T10:50:17.448Z,1017.91
2018-11-29T10:51:17.487Z,1017.85
2018-11-29T10:52:17.476Z,1017.93
2018-11-29T10:53:17.488Z,1017.92
2018-11-29T10:54:17.507Z,1017.87
2018-11-29T10:55:17.515Z,1017.87
2018-11-29T10:56:17.530Z,1017.86
2018-11-29T10:57:17.542Z,1017.83
2018-11-29T10:58:17.557Z,1017.81
2018-11-29T10:59:17.571Z,1017.72
2018-11-29T11:00:17.583Z,1017.74
2018-11-29T11:02:17.613Z,1017.78
2018-11-29T11:03:17.623Z,1017.81
2018-11-29T11:04:17.635Z,1017.88
2018-11-29T11:05:17.649Z,1017.81
2018-11-29T11:06:17.663Z,1017.85
2018-11-29T11:07:17.676Z,1017.81
2018-11-29T11:08:17.692Z,1017.84
2018-11-29T11:09:17.704Z,1017.78
2018-11-29T11:10:17.718Z,1017.69
2018-11-29T11:11:17.731Z,1017.77
2018-11-29T11:12:18.685Z,1017.72
2018-11-29T11:13:17.758Z,1017.76
2018-11-29T11:14:17.771Z,1017.8
2018-11-29T11:15:17.783Z,1017.74
2018-11-29T11:16:17.799Z,1017.79
2018-11-29T11:18:17.823Z,1017.66
2018-11-29T11:19:17.837Z,1017.66
2018-11-29T11:20:17.851Z,1017.55
2018-11-29T11:21:17.864Z,1017.51
2018-11-29T11:22:17.876Z,1017.54
2018-11-29T11:23:17.890Z,1017.51
2018-11-29T11:24:17.904Z,1017.58
2018-11-29T11:25:17.917Z,1017.59
2018-11-29T11:26:17.929Z,1017.59
2018-11-29T11:27:17.943Z,1017.55
2018-11-29T11:28:17.958Z,1017.57
2018-11-29T11:29:17.971Z,1017.6
2018-11-29T11:30:18.131Z,1017.57
2018-11-29T11:31:17.996Z,1017.52
2018-11-29T11:32:18.010Z,1017.51
2018-11-29T11:34:18.039Z,1017.55
2018-11-29T11:35:18.049Z,1017.48
2018-11-29T11:36:18.064Z,1017.52
2018-11-29T11:37:18.077Z,1017.52
2018-11-29T11:38:18.098Z,1017.43
2018-11-29T11:39:18.102Z,1017.45
2018-11-29T11:40:18.116Z,1017.4
2018-11-29T11:41:18.128Z,1017.47
2018-11-29T11:42:18.141Z,1017.4
2018-11-29T11:43:18.229Z,1017.43
2018-11-29T11:44:18.167Z,1017.44
2018-11-29T11:45:18.181Z,1017.42
2018-11-29T11:46:18.195Z,1017.46
2018-11-29T11:47:18.209Z,1017.37
2018-11-29T11:48:18.225Z,1017.37
2018-11-29T11:50:18.248Z,1017.38
2018-11-29T11:51:18.262Z,1017.45
2018-11-29T11:52:18.274Z,1017.45
2018-11-29T11:53:18.287Z,1017.36
2018-11-29T11:54:18.300Z,1017.42
2018-11-29T11:55:19.052Z,1017.43
2018-11-29T11:56:18.326Z,1017.42
2018-11-29T11:57:18.340Z,1017.48
2018-11-29T11:58:18.354Z,1017.42
2018-11-29T11:59:18.365Z,1017.43
2018-11-29T12:00:18.433Z,1017.44
2018-11-29T12:01:18.516Z,1017.44
2018-11-29T12:02:18.406Z,1017.44
2018-11-29T12:03:18.421Z,1017.41
2018-11-29T12:05:18.447Z,1017.34
2018-11-29T12:06:18.459Z,1017.34
2018-11-29T12:07:18.474Z,1017.31
2018-11-29T12:08:18.486Z,1017.23
2018-11-29T12:09:18.501Z,1017.26
2018-11-29T12:10:18.513Z,1017.15
2018-11-29T12:11:18.527Z,1017.16
2018-11-29T12:12:18.541Z,1017.13
2018-11-29T12:13:18.553Z,1017.13
2018-11-29T12:14:18.566Z,1017.13
2018-11-29T12:15:18.582Z,1017.16
2018-11-29T12:16:18.594Z,1017.12
2018-11-29T12:17:18.607Z,1017.09
2018-11-29T12:18:18.620Z,1017.07
2018-11-29T12:19:18.634Z,1017.05
2018-11-29T12:20:18.648Z,1017.01
2018-11-29T12:21:18.660Z,1017.01
2018-11-29T12:22:18.672Z,1016.97
2018-11-29T12:23:18.686Z,1016.97
2018-11-29T12:24:18.699Z,1016.94
2018-11-29T12:25:18.712Z,1016.91
2018-11-29T12:26:18.730Z,1016.96
2018-11-29T12:27:18.739Z,1016.94
2018-11-29T12:28:18.752Z,1017
2018-11-29T12:29:18.768Z,1016.97
2018-11-29T12:30:18.782Z,1016.99
2018-11-29T12:31:18.793Z,1016.93
2018-11-29T12:32:18.806Z,1016.96
2018-11-29T12:33:18.818Z,1016.91
2018-11-29T12:34:18.834Z,1016.92
2018-11-29T12:35:18.846Z,1016.92
2018-11-29T12:37:18.872Z,1016.79
2018-11-29T12:38:18.886Z,1016.8
2018-11-29T12:39:18.900Z,1016.83
2018-11-29T12:40:18.913Z,1016.87
2018-11-29T12:41:18.926Z,1016.83
2018-11-29T12:42:18.941Z,1016.84
2018-11-29T12:43:18.954Z,1016.83
2018-11-29T12:44:18.969Z,1016.89
2018-11-29T12:45:18.982Z,1016.84
2018-11-29T12:46:18.993Z,1016.87
2018-11-29T12:47:19.008Z,1016.84
2018-11-29T12:48:19.020Z,1016.84